sensor_id;sensor_type;location;lat;lon;timestamp;pressure;altitude;pressure_sealevel;temperature;humidity
54194;BME280;40102;50.906;6.972;2024-03-23T00:53:08;100286.53;;;12.21;77.79
54194;BME280;40102;50.906;6.972;2024-03-23T00:55:33;100285.66;;;12.20;77.65
54194;BME280;40102;50.906;6.972;2024-03-23T00:57:58;100282.22;;;12.18;77.71
54194;BME280;40102;50.906;6.972;2024-03-23T01:00:24;100280.41;;;12.19;78.05
54194;BME280;40102;50.906;6.972;2024-03-23T01:02:49;100266.25;;;12.17;77.81
54194;BME280;40102;50.906;6.972;2024-03-23T01:05:15;100262.81;;;12.15;77.44
54194;BME280;40102;50.906;6.972;2024-03-23T01:07:40;100273.66;;;12.13;78.01
54194;BME280;40102;50.906;6.972;2024-03-23T01:10:05;100266.56;;;12.12;77.62
54194;BME280;40102;50.906;6.972;2024-03-23T01:12:31;100265.59;;;12.13;77.65
54194;BME280;40102;50.906;6.972;2024-03-23T01:14:56;100264.75;;;12.13;77.69
54194;BME280;40102;50.906;6.972;2024-03-23T01:17:22;100264.75;;;12.13;77.34
54194;BME280;40102;50.906;6.972;2024-03-23T01:19:47;100260.25;;;12.13;77.51
54194;BME280;40102;50.906;6.972;2024-03-23T01:22:12;100264.00;;;12.11;77.27
54194;BME280;40102;50.906;6.972;2024-03-23T01:24:38;100248.13;;;12.08;77.40
54194;BME280;40102;50.906;6.972;2024-03-23T01:27:03;100244.69;;;12.06;77.72
54194;BME280;40102;50.906;6.972;2024-03-23T01:29:29;100238.56;;;12.04;77.74
54194;BME280;40102;50.906;6.972;2024-03-23T01:31:54;100253.38;;;11.96;77.92
54194;BME280;40102;50.906;6.972;2024-03-23T01:34:20;100252.72;;;11.93;77.42
54194;BME280;40102;50.906;6.972;2024-03-23T01:36:46;100253.69;;;11.92;76.93
54194;BME280;40102;50.906;6.972;2024-03-23T01:39:12;100251.97;;;11.91;76.57
54194;BME280;40102;50.906;6.972;2024-03-23T01:41:37;100265.34;;;11.91;76.06
54194;BME280;40102;50.906;6.972;2024-03-23T01:44:05;100270.72;;;11.91;75.45
54194;BME280;40102;50.906;6.972;2024-03-23T01:46:35;100265.56;;;11.88;75.64
54194;BME280;40102;50.906;6.972;2024-03-23T01:49:01;100245.09;;;11.87;75.14
54194;BME280;40102;50.906;6.972;2024-03-23T01:51:28;100254.09;;;11.86;75.18
54194;BME280;40102;50.906;6.972;2024-03-23T01:53:58;100241.56;;;11.86;74.55
54194;BME280;40102;50.906;6.972;2024-03-23T01:56:28;100244.44;;;11.83;74.35
54194;BME280;40102;50.906;6.972;2024-03-23T01:58:53;100251.72;;;11.81;74.14
54194;BME280;40102;50.906;6.972;2024-03-23T02:01:19;100242.94;;;11.79;73.83
54194;BME280;40102;50.906;6.972;2024-03-23T02:03:44;100251.94;;;11.78;73.87
54194;BME280;40102;50.906;6.972;2024-03-23T02:06:10;100241.28;;;11.77;73.58
54194;BME280;40102;50.906;6.972;2024-03-23T02:08:35;100245.03;;;11.74;73.41
54194;BME280;40102;50.906;6.972;2024-03-23T02:11:00;100253.19;;;11.73;73.63
54194;BME280;40102;50.906;6.972;2024-03-23T02:13:29;100256.63;;;11.75;73.55
54194;BME280;40102;50.906;6.972;2024-03-23T02:15:54;100252.31;;;11.72;73.47
54194;BME280;40102;50.906;6.972;2024-03-23T02:18:19;100254.34;;;11.68;73.63
54194;BME280;40102;50.906;6.972;2024-03-23T02:20:45;100250.91;;;11.66;73.46
54194;BME280;40102;50.906;6.972;2024-03-23T02:23:14;100254.66;;;11.64;73.70
54194;BME280;40102;50.906;6.972;2024-03-23T02:25:40;100258.31;;;11.63;73.37
54194;BME280;40102;50.906;6.972;2024-03-23T02:28:05;100241.38;;;11.62;73.42
54194;BME280;40102;50.906;6.972;2024-03-23T02:30:31;100243.41;;;11.59;73.10
54194;BME280;40102;50.906;6.972;2024-03-23T02:32:56;100245.22;;;11.58;72.99
54194;BME280;40102;50.906;6.972;2024-03-23T02:35:22;100242.63;;;11.57;73.13
54194;BME280;40102;50.906;6.972;2024-03-23T02:37:47;100246.28;;;11.56;73.56
54194;BME280;40102;50.906;6.972;2024-03-23T02:40:16;100250.03;;;11.53;73.66
54194;BME280;40102;50.906;6.972;2024-03-23T02:42:42;100262.56;;;11.53;74.57
54194;BME280;40102;50.906;6.972;2024-03-23T02:45:07;100266.41;;;11.49;73.57
54194;BME280;40102;50.906;6.972;2024-03-23T02:47:33;100267.66;;;11.43;72.03
54194;BME280;40102;50.906;6.972;2024-03-23T02:49:59;100274.19;;;11.39;71.18
54194;BME280;40102;50.906;6.972;2024-03-23T02:52:24;100282.41;;;11.36;69.99
54194;BME280;40102;50.906;6.972;2024-03-23T02:54:49;100285.31;;;11.33;70.41
54194;BME280;40102;50.906;6.972;2024-03-23T02:57:15;100287.41;;;11.28;69.11
54194;BME280;40102;50.906;6.972;2024-03-23T02:59:41;100294.59;;;11.27;69.24
54194;BME280;40102;50.906;6.972;2024-03-23T03:02:06;100279.50;;;11.26;68.94
54194;BME280;40102;50.906;6.972;2024-03-23T03:04:32;100280.25;;;11.28;68.89
54194;BME280;40102;50.906;6.972;2024-03-23T03:06:57;100276.72;;;11.28;68.97
54194;BME280;40102;50.906;6.972;2024-03-23T03:09:23;100268.69;;;11.28;68.97
54194;BME280;40102;50.906;6.972;2024-03-23T03:11:49;100276.81;;;11.26;68.66
54194;BME280;40102;50.906;6.972;2024-03-23T03:14:14;100275.19;;;11.24;68.85
54194;BME280;40102;50.906;6.972;2024-03-23T03:16:39;100274.34;;;11.23;68.83
54194;BME280;40102;50.906;6.972;2024-03-23T03:19:05;100270.03;;;11.21;68.69
54194;BME280;40102;50.906;6.972;2024-03-23T03:21:31;100263.63;;;11.23;68.80
54194;BME280;40102;50.906;6.972;2024-03-23T03:23:57;100249.47;;;11.21;69.13
54194;BME280;40102;50.906;6.972;2024-03-23T03:26:23;100266.50;;;11.20;68.92
54194;BME280;40102;50.906;6.972;2024-03-23T03:28:50;100277.41;;;11.17;68.62
54194;BME280;40102;50.906;6.972;2024-03-23T03:31:16;100274.16;;;11.12;68.10
54194;BME280;40102;50.906;6.972;2024-03-23T03:33:42;100281.44;;;11.10;67.54
54194;BME280;40102;50.906;6.972;2024-03-23T03:36:07;100269.97;;;11.08;67.43
54194;BME280;40102;50.906;6.972;2024-03-23T03:38:32;100262.72;;;11.10;67.47
54194;BME280;40102;50.906;6.972;2024-03-23T03:41:00;100261.75;;;11.11;67.65
54194;BME280;40102;50.906;6.972;2024-03-23T03:43:26;100266.13;;;11.12;68.14
54194;BME280;40102;50.906;6.972;2024-03-23T03:45:55;100268.25;;;11.07;68.02
54194;BME280;40102;50.906;6.972;2024-03-23T03:48:21;100272.00;;;11.04;68.32
54194;BME280;40102;50.906;6.972;2024-03-23T03:50:46;100258.06;;;10.99;68.38
54194;BME280;40102;50.906;6.972;2024-03-23T03:53:11;100271.53;;;10.98;68.19
54194;BME280;40102;50.906;6.972;2024-03-23T03:55:37;100265.50;;;10.94;68.17
54194;BME280;40102;50.906;6.972;2024-03-23T03:58:03;100272.59;;;10.95;68.09
54194;BME280;40102;50.906;6.972;2024-03-23T04:00:29;100270.09;;;10.92;68.03
54194;BME280;40102;50.906;6.972;2024-03-23T04:02:55;100273.06;;;10.88;68.12
54194;BME280;40102;50.906;6.972;2024-03-23T04:05:20;100283.00;;;10.86;68.14
54194;BME280;40102;50.906;6.972;2024-03-23T04:07:46;100283.13;;;10.84;68.15
54194;BME280;40102;50.906;6.972;2024-03-23T04:10:11;100285.88;;;10.83;67.84
54194;BME280;40102;50.906;6.972;2024-03-23T04:12:37;100276.13;;;10.82;67.87
54194;BME280;40102;50.906;6.972;2024-03-23T04:15:03;100287.31;;;10.74;67.22
54194;BME280;40102;50.906;6.972;2024-03-23T04:17:29;100287.91;;;10.65;68.46
54194;BME280;40102;50.906;6.972;2024-03-23T04:19:57;100292.78;;;10.58;69.05
54194;BME280;40102;50.906;6.972;2024-03-23T04:22:23;100288.47;;;10.56;69.41
54194;BME280;40102;50.906;6.972;2024-03-23T04:24:49;100294.69;;;10.56;69.53
54194;BME280;40102;50.906;6.972;2024-03-23T04:27:15;100284.00;;;10.56;69.59
54194;BME280;40102;50.906;6.972;2024-03-23T04:29:40;100289.25;;;10.58;69.36
54194;BME280;40102;50.906;6.972;2024-03-23T04:32:06;100292.00;;;10.56;69.23
54194;BME280;40102;50.906;6.972;2024-03-23T04:34:32;100300.31;;;10.52;68.82
54194;BME280;40102;50.906;6.972;2024-03-23T04:36:58;100298.88;;;10.46;69.88
54194;BME280;40102;50.906;6.972;2024-03-23T04:39:24;100299.59;;;10.35;69.55
54194;BME280;40102;50.906;6.972;2024-03-23T04:41:49;100300.25;;;10.25;70.23
54194;BME280;40102;50.906;6.972;2024-03-23T04:44:15;100299.47;;;10.23;71.08
54194;BME280;40102;50.906;6.972;2024-03-23T04:46:40;100298.00;;;10.17;71.03
54194;BME280;40102;50.906;6.972;2024-03-23T04:49:06;100303.44;;;10.16;70.92
54194;BME280;40102;50.906;6.972;2024-03-23T04:51:35;100302.94;;;10.09;71.47
54194;BME280;40102;50.906;6.972;2024-03-23T04:54:06;100305.53;;;10.11;71.75
54194;BME280;40102;50.906;6.972;2024-03-23T04:56:32;100308.47;;;10.06;71.79
54194;BME280;40102;50.906;6.972;2024-03-23T04:58:58;100291.94;;;9.99;72.14
54194;BME280;40102;50.906;6.972;2024-03-23T05:01:27;100290.50;;;9.94;72.73
54194;BME280;40102;50.906;6.972;2024-03-23T05:03:52;100287.75;;;9.95;72.72
54194;BME280;40102;50.906;6.972;2024-03-23T05:06:18;100278.78;;;9.96;72.84
54194;BME280;40102;50.906;6.972;2024-03-23T05:08:44;100281.53;;;9.95;72.44
54194;BME280;40102;50.906;6.972;2024-03-23T05:11:09;100295.00;;;9.93;72.36
54194;BME280;40102;50.906;6.972;2024-03-23T05:13:35;100298.28;;;9.83;72.89
54194;BME280;40102;50.906;6.972;2024-03-23T05:16:01;100297.78;;;9.76;72.96
54194;BME280;40102;50.906;6.972;2024-03-23T05:18:26;100309.78;;;9.69;73.35
54194;BME280;40102;50.906;6.972;2024-03-23T05:20:57;100306.88;;;9.58;73.49
54194;BME280;40102;50.906;6.972;2024-03-23T05:23:23;100314.22;;;9.54;74.15
54194;BME280;40102;50.906;6.972;2024-03-23T05:25:48;100312.50;;;9.53;74.21
54194;BME280;40102;50.906;6.972;2024-03-23T05:28:14;100313.25;;;9.55;75.19
54194;BME280;40102;50.906;6.972;2024-03-23T05:30:39;100309.38;;;9.61;74.99
54194;BME280;40102;50.906;6.972;2024-03-23T05:33:05;100304.91;;;9.61;75.04
54194;BME280;40102;50.906;6.972;2024-03-23T05:35:31;100316.53;;;9.60;74.22
54194;BME280;40102;50.906;6.972;2024-03-23T05:37:57;100315.84;;;9.57;74.02
54194;BME280;40102;50.906;6.972;2024-03-23T05:40:24;100304.66;;;9.50;74.41
54194;BME280;40102;50.906;6.972;2024-03-23T05:42:50;100305.78;;;9.46;74.80
54194;BME280;40102;50.906;6.972;2024-03-23T05:45:18;100300.53;;;9.45;74.68
54194;BME280;40102;50.906;6.972;2024-03-23T05:47:44;100305.00;;;9.44;74.66
54194;BME280;40102;50.906;6.972;2024-03-23T05:50:10;100310.19;;;9.31;74.74
54194;BME280;40102;50.906;6.972;2024-03-23T05:52:38;100302.78;;;9.21;75.49
54194;BME280;40102;50.906;6.972;2024-03-23T05:55:04;100313.72;;;9.16;76.00
54194;BME280;40102;50.906;6.972;2024-03-23T05:57:29;100312.00;;;9.15;76.54
54194;BME280;40102;50.906;6.972;2024-03-23T05:59:55;100327.75;;;9.20;76.43
54194;BME280;40102;50.906;6.972;2024-03-23T06:02:20;100320.19;;;9.12;75.99
54194;BME280;40102;50.906;6.972;2024-03-23T06:04:46;100324.56;;;9.13;76.11
54194;BME280;40102;50.906;6.972;2024-03-23T06:07:11;100323.97;;;9.08;76.42
54194;BME280;40102;50.906;6.972;2024-03-23T06:09:39;100331.09;;;9.07;76.05
54194;BME280;40102;50.906;6.972;2024-03-23T06:12:05;100326.03;;;9.03;75.39
54194;BME280;40102;50.906;6.972;2024-03-23T06:14:31;100327.31;;;8.96;77.00
54194;BME280;40102;50.906;6.972;2024-03-23T06:16:57;100331.19;;;8.90;77.04
54194;BME280;40102;50.906;6.972;2024-03-23T06:19:22;100330.16;;;8.93;77.40
54194;BME280;40102;50.906;6.972;2024-03-23T06:21:47;100317.59;;;8.95;77.51
54194;BME280;40102;50.906;6.972;2024-03-23T06:24:13;100311.91;;;9.01;76.93
54194;BME280;40102;50.906;6.972;2024-03-23T06:26:38;100325.16;;;9.02;77.42
54194;BME280;40102;50.906;6.972;2024-03-23T06:29:04;100323.28;;;9.04;77.46
54194;BME280;40102;50.906;6.972;2024-03-23T06:31:30;100323.19;;;9.06;77.29
54194;BME280;40102;50.906;6.972;2024-03-23T06:33:56;100317.94;;;9.04;76.13
54194;BME280;40102;50.906;6.972;2024-03-23T06:36:21;100319.13;;;8.99;76.55
54194;BME280;40102;50.906;6.972;2024-03-23T06:38:46;100335.47;;;8.93;75.28
54194;BME280;40102;50.906;6.972;2024-03-23T06:41:12;100322.22;;;8.75;76.82
54194;BME280;40102;50.906;6.972;2024-03-23T06:43:37;100341.28;;;8.68;77.96
54194;BME280;40102;50.906;6.972;2024-03-23T06:46:03;100334.81;;;8.56;77.43
54194;BME280;40102;50.906;6.972;2024-03-23T06:48:29;100342.81;;;8.56;79.20
54194;BME280;40102;50.906;6.972;2024-03-23T06:50:56;100341.63;;;8.62;78.95
54194;BME280;40102;50.906;6.972;2024-03-23T06:53:22;100347.34;;;8.54;78.29
54194;BME280;40102;50.906;6.972;2024-03-23T06:55:52;100333.50;;;8.48;79.90
54194;BME280;40102;50.906;6.972;2024-03-23T06:58:24;100342.81;;;8.56;78.45
54194;BME280;40102;50.906;6.972;2024-03-23T07:00:49;100334.97;;;8.53;79.36
54194;BME280;40102;50.906;6.972;2024-03-23T07:03:16;100337.72;;;8.52;79.65
54194;BME280;40102;50.906;6.972;2024-03-23T07:05:42;100340.63;;;8.47;79.18
54194;BME280;40102;50.906;6.972;2024-03-23T07:08:07;100346.91;;;8.46;79.40
54194;BME280;40102;50.906;6.972;2024-03-23T07:10:33;100354.34;;;8.39;79.46
54194;BME280;40102;50.906;6.972;2024-03-23T07:12:58;100348.41;;;8.34;79.80
54194;BME280;40102;50.906;6.972;2024-03-23T07:15:24;100349.63;;;8.27;81.67
54194;BME280;40102;50.906;6.972;2024-03-23T07:17:52;100349.28;;;8.35;80.23
54194;BME280;40102;50.906;6.972;2024-03-23T07:20:17;100354.59;;;8.35;80.24
54194;BME280;40102;50.906;6.972;2024-03-23T07:22:45;100349.34;;;8.33;80.52
54194;BME280;40102;50.906;6.972;2024-03-23T07:25:10;100368.53;;;8.40;80.77
54194;BME280;40102;50.906;6.972;2024-03-23T07:27:36;100360.31;;;8.44;81.63
54194;BME280;40102;50.906;6.972;2024-03-23T07:30:02;100352.00;;;8.51;80.66
54194;BME280;40102;50.906;6.972;2024-03-23T07:32:27;100363.97;;;8.59;80.32
54194;BME280;40102;50.906;6.972;2024-03-23T07:34:53;100372.91;;;8.58;80.57
54194;BME280;40102;50.906;6.972;2024-03-23T07:37:18;100361.06;;;8.64;80.15
54194;BME280;40102;50.906;6.972;2024-03-23T07:39:43;100360.72;;;8.70;79.78
54194;BME280;40102;50.906;6.972;2024-03-23T07:42:09;100359.19;;;8.66;80.20
54194;BME280;40102;50.906;6.972;2024-03-23T07:44:34;100355.56;;;8.67;80.92
54194;BME280;40102;50.906;6.972;2024-03-23T07:47:03;100360.56;;;8.73;80.33
54194;BME280;40102;50.906;6.972;2024-03-23T07:49:28;100361.09;;;8.80;79.94
54194;BME280;40102;50.906;6.972;2024-03-23T07:51:54;100363.69;;;8.81;80.16
54194;BME280;40102;50.906;6.972;2024-03-23T07:54:19;100354.66;;;8.84;80.03
54194;BME280;40102;50.906;6.972;2024-03-23T07:56:44;100367.03;;;8.85;79.40
54194;BME280;40102;50.906;6.972;2024-03-23T07:59:10;100353.09;;;8.80;79.52
54194;BME280;40102;50.906;6.972;2024-03-23T08:01:36;100350.69;;;8.75;80.00
54194;BME280;40102;50.906;6.972;2024-03-23T08:04:01;100357.50;;;8.81;78.27
54194;BME280;40102;50.906;6.972;2024-03-23T08:06:27;100363.84;;;8.78;78.65
54194;BME280;40102;50.906;6.972;2024-03-23T08:08:55;100355.22;;;8.73;78.98
54194;BME280;40102;50.906;6.972;2024-03-23T08:11:30;100362.38;;;8.72;78.87
54194;BME280;40102;50.906;6.972;2024-03-23T08:13:56;100359.22;;;8.82;79.06
54194;BME280;40102;50.906;6.972;2024-03-23T08:16:22;100356.91;;;8.91;79.50
54194;BME280;40102;50.906;6.972;2024-03-23T08:18:47;100354.00;;;8.96;78.08
54194;BME280;40102;50.906;6.972;2024-03-23T08:21:13;100355.78;;;8.95;76.36
54194;BME280;40102;50.906;6.972;2024-03-23T08:23:39;100357.59;;;8.95;74.43
54194;BME280;40102;50.906;6.972;2024-03-23T08:26:10;100356.84;;;9.08;73.00
54194;BME280;40102;50.906;6.972;2024-03-23T08:28:35;100369.25;;;9.09;68.83
54194;BME280;40102;50.906;6.972;2024-03-23T08:31:03;100377.31;;;9.08;66.68
54194;BME280;40102;50.906;6.972;2024-03-23T08:33:30;100378.28;;;9.07;67.20
54194;BME280;40102;50.906;6.972;2024-03-23T08:36:00;100375.78;;;9.04;66.15
54194;BME280;40102;50.906;6.972;2024-03-23T08:38:27;100383.09;;;9.00;65.12
54194;BME280;40102;50.906;6.972;2024-03-23T08:40:59;100376.44;;;8.92;66.64
54194;BME280;40102;50.906;6.972;2024-03-23T08:43:25;100383.41;;;8.94;67.83
54194;BME280;40102;50.906;6.972;2024-03-23T08:45:51;100387.38;;;9.03;69.31
54194;BME280;40102;50.906;6.972;2024-03-23T08:48:17;100389.81;;;9.23;68.52
54194;BME280;40102;50.906;6.972;2024-03-23T08:51:06;100385.09;;;9.28;68.20
54194;BME280;40102;50.906;6.972;2024-03-23T08:54:02;100386.91;;;9.44;69.99
54194;BME280;40102;50.906;6.972;2024-03-23T08:56:28;100391.19;;;9.62;67.51
54194;BME280;40102;50.906;6.972;2024-03-23T08:58:53;100388.38;;;9.65;67.97
54194;BME280;40102;50.906;6.972;2024-03-23T09:01:18;100386.91;;;9.59;67.94
54194;BME280;40102;50.906;6.972;2024-03-23T09:03:44;100377.25;;;9.57;69.14
54194;BME280;40102;50.906;6.972;2024-03-23T09:06:14;100378.03;;;9.59;70.42
54194;BME280;40102;50.906;6.972;2024-03-23T09:08:40;100364.09;;;9.54;70.02
54194;BME280;40102;50.906;6.972;2024-03-23T09:11:11;100355.72;;;9.60;70.57
54194;BME280;40102;50.906;6.972;2024-03-23T09:13:37;100360.44;;;9.70;69.96
54194;BME280;40102;50.906;6.972;2024-03-23T09:16:04;100364.75;;;9.73;69.20
54194;BME280;40102;50.906;6.972;2024-03-23T09:18:35;100358.72;;;9.69;69.46
54194;BME280;40102;50.906;6.972;2024-03-23T09:21:01;100361.56;;;9.66;69.98
54194;BME280;40102;50.906;6.972;2024-03-23T09:23:27;100364.09;;;9.54;69.88
54194;BME280;40102;50.906;6.972;2024-03-23T09:25:52;100358.22;;;9.31;69.20
54194;BME280;40102;50.906;6.972;2024-03-23T09:28:17;100352.72;;;9.19;69.01
54194;BME280;40102;50.906;6.972;2024-03-23T09:30:43;100350.22;;;9.16;70.00
54194;BME280;40102;50.906;6.972;2024-03-23T09:33:12;100364.16;;;9.21;69.72
54194;BME280;40102;50.906;6.972;2024-03-23T09:35:41;100363.47;;;9.17;69.06
54194;BME280;40102;50.906;6.972;2024-03-23T09:38:07;100351.78;;;9.20;68.66
54194;BME280;40102;50.906;6.972;2024-03-23T09:40:34;100363.22;;;9.22;69.29
54194;BME280;40102;50.906;6.972;2024-03-23T09:43:00;100352.19;;;9.28;68.74
54194;BME280;40102;50.906;6.972;2024-03-23T09:45:29;100366.50;;;9.27;68.86
54194;BME280;40102;50.906;6.972;2024-03-23T09:47:55;100354.09;;;9.26;68.71
54194;BME280;40102;50.906;6.972;2024-03-23T09:50:21;100352.53;;;9.22;70.14
54194;BME280;40102;50.906;6.972;2024-03-23T09:52:47;100342.38;;;9.28;69.58
54194;BME280;40102;50.906;6.972;2024-03-23T09:55:13;100366.25;;;9.31;67.97
54194;BME280;40102;50.906;6.972;2024-03-23T09:57:39;100360.22;;;9.28;65.61
54194;BME280;40102;50.906;6.972;2024-03-23T10:00:05;100362.53;;;9.18;66.23
54194;BME280;40102;50.906;6.972;2024-03-23T10:02:31;100347.56;;;9.16;66.82
54194;BME280;40102;50.906;6.972;2024-03-23T10:04:58;100322.34;;;9.21;67.11
54194;BME280;40102;50.906;6.972;2024-03-23T10:07:23;100329.66;;;9.33;67.22
54194;BME280;40102;50.906;6.972;2024-03-23T10:09:49;100334.97;;;9.49;66.66
54194;BME280;40102;50.906;6.972;2024-03-23T10:12:18;100323.59;;;9.61;65.66
54194;BME280;40102;50.906;6.972;2024-03-23T10:14:47;100334.94;;;9.65;63.83
54194;BME280;40102;50.906;6.972;2024-03-23T10:19:41;100335.22;;;9.60;61.52
54194;BME280;40102;50.906;6.972;2024-03-23T10:22:09;100342.19;;;9.63;60.79
54194;BME280;40102;50.906;6.972;2024-03-23T10:24:35;100321.09;;;9.58;60.69
54194;BME280;40102;50.906;6.972;2024-03-23T10:27:00;100317.75;;;9.55;61.67
54194;BME280;40102;50.906;6.972;2024-03-23T10:29:25;100357.63;;;9.58;59.76
54194;BME280;40102;50.906;6.972;2024-03-23T10:31:53;100352.19;;;9.44;60.80
54194;BME280;40102;50.906;6.972;2024-03-23T10:34:25;100341.44;;;9.45;61.91
54194;BME280;40102;50.906;6.972;2024-03-23T10:36:53;100365.28;;;9.32;62.88
54194;BME280;40102;50.906;6.972;2024-03-23T10:39:20;100357.88;;;9.22;65.49
54194;BME280;40102;50.906;6.972;2024-03-23T10:41:49;100385.75;;;9.00;66.65
54194;BME280;40102;50.906;6.972;2024-03-23T10:44:17;100377.78;;;8.83;68.22
54194;BME280;40102;50.906;6.972;2024-03-23T10:46:45;100404.41;;;8.67;71.46
54194;BME280;40102;50.906;6.972;2024-03-23T10:49:10;100390.16;;;8.51;74.26
54194;BME280;40102;50.906;6.972;2024-03-23T10:51:37;100397.84;;;8.57;74.99
54194;BME280;40102;50.906;6.972;2024-03-23T10:54:04;100385.47;;;8.56;75.76
54194;BME280;40102;50.906;6.972;2024-03-23T10:56:31;100380.28;;;8.53;76.94
54194;BME280;40102;50.906;6.972;2024-03-23T10:59:01;100374.97;;;8.53;78.04
54194;BME280;40102;50.906;6.972;2024-03-23T11:01:28;100376.53;;;8.57;78.13
54194;BME280;40102;50.906;6.972;2024-03-23T11:03:53;100382.94;;;8.53;79.25
54194;BME280;40102;50.906;6.972;2024-03-23T11:06:37;100360.16;;;8.48;80.54
54194;BME280;40102;50.906;6.972;2024-03-23T11:09:03;100372.03;;;8.58;80.59
54194;BME280;40102;50.906;6.972;2024-03-23T11:11:29;100376.03;;;8.66;79.47
54194;BME280;40102;50.906;6.972;2024-03-23T11:13:59;100368.91;;;8.67;79.17
54194;BME280;40102;50.906;6.972;2024-03-23T11:16:27;100367.16;;;8.66;79.20
54194;BME280;40102;50.906;6.972;2024-03-23T11:19:33;100371.00;;;8.77;77.40
54194;BME280;40102;50.906;6.972;2024-03-23T11:21:59;100351.53;;;8.75;77.46
54194;BME280;40102;50.906;6.972;2024-03-23T11:24:25;100341.50;;;8.81;76.58
54194;BME280;40102;50.906;6.972;2024-03-23T11:26:50;100338.22;;;8.91;76.42
54194;BME280;40102;50.906;6.972;2024-03-23T11:29:16;100341.16;;;9.02;77.08
54194;BME280;40102;50.906;6.972;2024-03-23T11:31:50;100328.00;;;8.99;77.31
54194;BME280;40102;50.906;6.972;2024-03-23T11:34:16;100343.22;;;8.97;78.06
54194;BME280;40102;50.906;6.972;2024-03-23T11:36:42;100348.66;;;8.96;75.44
54194;BME280;40102;50.906;6.972;2024-03-23T11:39:18;100345.31;;;9.08;74.27
54194;BME280;40102;50.906;6.972;2024-03-23T11:41:47;100346.53;;;9.18;73.26
54194;BME280;40102;50.906;6.972;2024-03-23T11:44:21;100339.91;;;9.25;72.49
54194;BME280;40102;50.906;6.972;2024-03-23T11:46:47;100337.75;;;9.32;72.33
54194;BME280;40102;50.906;6.972;2024-03-23T11:49:23;100336.63;;;9.36;72.37
54194;BME280;40102;50.906;6.972;2024-03-23T11:51:49;100337.91;;;9.45;72.25
54194;BME280;40102;50.906;6.972;2024-03-23T11:54:15;100332.47;;;9.46;71.65
54194;BME280;40102;50.906;6.972;2024-03-23T11:56:41;100338.59;;;9.48;71.48
54194;BME280;40102;50.906;6.972;2024-03-23T11:59:40;100347.38;;;9.50;71.26
54194;BME280;40102;50.906;6.972;2024-03-23T12:02:10;100361.94;;;9.45;71.33
54194;BME280;40102;50.906;6.972;2024-03-23T12:04:37;100366.59;;;9.41;71.16
54194;BME280;40102;50.906;6.972;2024-03-23T12:07:19;100361.16;;;9.43;71.37
54194;BME280;40102;50.906;6.972;2024-03-23T12:10:07;100335.59;;;9.38;71.67
54194;BME280;40102;50.906;6.972;2024-03-23T12:12:32;100338.25;;;9.38;70.26
54194;BME280;40102;50.906;6.972;2024-03-23T12:15:07;100321.38;;;9.38;70.30
54194;BME280;40102;50.906;6.972;2024-03-23T12:17:34;100322.06;;;9.41;69.61
54194;BME280;40102;50.906;6.972;2024-03-23T12:20:00;100321.72;;;9.48;70.02
54194;BME280;40102;50.906;6.972;2024-03-23T12:22:29;100311.97;;;9.47;69.45
54194;BME280;40102;50.906;6.972;2024-03-23T12:24:57;100323.63;;;9.46;68.80
54194;BME280;40102;50.906;6.972;2024-03-23T12:27:23;100328.34;;;9.40;68.87
54194;BME280;40102;50.906;6.972;2024-03-23T12:29:48;100334.47;;;9.43;68.83
54194;BME280;40102;50.906;6.972;2024-03-23T12:32:14;100349.78;;;9.39;68.49
54194;BME280;40102;50.906;6.972;2024-03-23T12:34:40;100357.47;;;9.29;67.12
54194;BME280;40102;50.906;6.972;2024-03-23T12:37:07;100358.06;;;9.19;67.97
54194;BME280;40102;50.906;6.972;2024-03-23T12:39:33;100372.69;;;9.12;67.88
54194;BME280;40102;50.906;6.972;2024-03-23T12:42:00;100370.88;;;9.12;68.05
54194;BME280;40102;50.906;6.972;2024-03-23T12:44:25;100370.00;;;9.12;68.77
54194;BME280;40102;50.906;6.972;2024-03-23T12:46:54;100386.88;;;9.12;68.91
54194;BME280;40102;50.906;6.972;2024-03-23T12:49:19;100369.16;;;9.11;69.22
54194;BME280;40102;50.906;6.972;2024-03-23T12:51:53;100355.63;;;9.14;69.51
54194;BME280;40102;50.906;6.972;2024-03-23T12:54:20;100354.00;;;9.27;69.52
54194;BME280;40102;50.906;6.972;2024-03-23T12:56:45;100344.81;;;9.33;68.50
54194;BME280;40102;50.906;6.972;2024-03-23T12:59:11;100337.13;;;9.43;67.29
54194;BME280;40102;50.906;6.972;2024-03-23T13:01:38;100342.03;;;9.50;67.68
54194;BME280;40102;50.906;6.972;2024-03-23T13:04:03;100346.50;;;9.65;67.64
54194;BME280;40102;50.906;6.972;2024-03-23T13:06:29;100361.31;;;9.71;66.28
54194;BME280;40102;50.906;6.972;2024-03-23T13:08:59;100340.78;;;9.71;64.86
54194;BME280;40102;50.906;6.972;2024-03-23T13:11:24;100344.41;;;9.70;64.49
54194;BME280;40102;50.906;6.972;2024-03-23T13:13:50;100352.69;;;9.66;63.49
54194;BME280;40102;50.906;6.972;2024-03-23T13:16:16;100342.38;;;9.60;63.78
54194;BME280;40102;50.906;6.972;2024-03-23T13:18:41;100340.47;;;9.62;63.83
54194;BME280;40102;50.906;6.972;2024-03-23T13:21:07;100332.28;;;9.65;64.60
54194;BME280;40102;50.906;6.972;2024-03-23T13:23:32;100336.06;;;9.77;66.44
54194;BME280;40102;50.906;6.972;2024-03-23T13:26:01;100334.38;;;9.90;66.35
54194;BME280;40102;50.906;6.972;2024-03-23T13:28:26;100325.09;;;10.11;64.91
54194;BME280;40102;50.906;6.972;2024-03-23T13:30:53;100312.38;;;10.30;63.75
54194;BME280;40102;50.906;6.972;2024-03-23T13:33:18;100306.47;;;10.40;62.57
54194;BME280;40102;50.906;6.972;2024-03-23T13:35:54;100325.28;;;10.38;61.54
54194;BME280;40102;50.906;6.972;2024-03-23T13:38:21;100309.78;;;10.29;61.32
54194;BME280;40102;50.906;6.972;2024-03-23T13:40:57;100305.31;;;10.29;62.34
54194;BME280;40102;50.906;6.972;2024-03-23T13:43:23;100305.13;;;10.32;63.00
54194;BME280;40102;50.906;6.972;2024-03-23T13:45:52;100303.56;;;10.43;64.31
54194;BME280;40102;50.906;6.972;2024-03-23T13:48:19;100299.28;;;10.54;61.52
54194;BME280;40102;50.906;6.972;2024-03-23T13:50:45;100295.53;;;10.57;59.74